Time;durP1;ratioP1;P1;durP2;ratioP2;P2;SDS_P1;SDS_P2;PMS_P1;PMS_P2;Temp;Humidity;BMP_temperature;BMP_pressure;BME280_temperature;BME280_humidity;BME280_pressure;Samples;Min_cycle;Max_cycle;Signal;HPM_P1;HPM_P2
2023/03/15 00:01:38;;;;;;;0.63;0.63;;;4.50;77.40;;;;;;5080778;28;20043;-68
2023/03/15 00:04:04;;;;;;;0.70;0.70;;;4.40;77.70;;;;;;5081481;28;20033;-67
2023/03/15 00:06:32;;;;;;;0.70;0.70;;;4.30;77.70;;;;;;5084689;28;20027;-67
2023/03/15 00:09:00;;;;;;;0.80;0.70;;;4.30;77.90;;;;;;5087662;28;20114;-68
2023/03/15 00:11:29;;;;;;;0.70;0.70;;;4.30;77.80;;;;;;5093555;28;20108;-67
2023/03/15 00:13:58;;;;;;;0.70;0.60;;;4.30;77.90;;;;;;5097793;27;20027;-67
2023/03/15 00:16:25;;;;;;;0.70;0.70;;;4.30;78.00;;;;;;5083843;28;20111;-67
2023/03/15 00:18:55;;;;;;;0.70;0.70;;;4.30;78.10;;;;;;5085978;28;20085;-68
2023/03/15 00:21:21;;;;;;;0.70;0.70;;;4.20;78.30;;;;;;5071480;28;20497;-68
2023/03/15 00:23:47;;;;;;;0.57;0.57;;;4.10;78.40;;;;;;5075669;28;20047;-67
2023/03/15 00:26:13;;;;;;;0.60;0.60;;;4.10;78.60;;;;;;5087781;28;20779;-68
2023/03/15 00:28:39;;;;;;;0.57;0.57;;;4.10;78.50;;;;;;5075907;28;20578;-68
2023/03/15 00:31:15;;;;;;;0.63;0.55;;;4.10;78.50;;;;;;5082473;28;20028;-67
2023/03/15 00:33:41;;;;;;;0.70;0.70;;;4.20;78.60;;;;;;5083472;28;20439;-67
2023/03/15 00:36:09;;;;;;;0.70;0.70;;;4.10;78.50;;;;;;5086589;28;20111;-68
2023/03/15 00:38:36;;;;;;;0.63;0.63;;;4.20;78.60;;;;;;5079183;28;20024;-67
2023/03/15 00:41:11;;;;;;;0.60;0.60;;;4.20;78.60;;;;;;5082578;28;20039;-68
2023/03/15 00:43:36;;;;;;;0.60;0.60;;;4.20;78.60;;;;;;5088327;28;20042;-68
2023/03/15 00:46:03;;;;;;;0.70;0.70;;;4.20;78.60;;;;;;5086886;28;20023;-67
2023/03/15 00:48:29;;;;;;;1.02;0.98;;;4.10;78.70;;;;;;5089755;28;20026;-67
2023/03/15 00:51:05;;;;;;;1.10;1.00;;;4.10;78.80;;;;;;5075783;28;20036;-68
2023/03/15 00:53:31;;;;;;;1.48;0.80;;;4.00;79.00;;;;;;5085707;28;20021;-68
2023/03/15 00:55:57;;;;;;;0.75;0.75;;;4.00;79.20;;;;;;5087892;28;20661;-67
2023/03/15 00:58:23;;;;;;;0.98;0.98;;;4.00;79.20;;;;;;5084820;28;20028;-67
2023/03/15 01:00:48;;;;;;;0.90;0.90;;;4.10;79.80;;;;;;5084734;28;20418;-67
2023/03/15 01:03:14;;;;;;;1.00;1.00;;;4.10;79.20;;;;;;5088824;28;20032;-68
2023/03/15 01:05:40;;;;;;;1.00;1.00;;;4.10;79.30;;;;;;5076791;28;20437;-68
2023/03/15 01:08:05;;;;;;;1.10;1.10;;;4.10;79.20;;;;;;5089179;28;20585;-66
2023/03/15 01:10:34;;;;;;;1.00;1.00;;;4.10;79.20;;;;;;5084950;28;20024;-66
2023/03/15 01:12:59;;;;;;;0.90;0.90;;;4.10;80.00;;;;;;5080539;28;20031;-66
2023/03/15 01:15:25;;;;;;;0.90;0.90;;;4.10;79.40;;;;;;5082078;28;20020;-67
2023/03/15 01:17:51;;;;;;;0.88;0.88;;;4.20;79.40;;;;;;5086614;28;20073;-67
2023/03/15 01:20:16;;;;;;;1.10;1.05;;;4.20;79.40;;;;;;5077411;28;20024;-67
2023/03/15 01:22:42;;;;;;;1.00;1.00;;;4.20;79.40;;;;;;5085965;28;20032;-66
2023/03/15 01:25:08;;;;;;;0.95;0.95;;;4.20;79.30;;;;;;5085150;28;20070;-66
2023/03/15 01:27:34;;;;;;;1.80;1.10;;;4.20;79.30;;;;;;5081526;28;20099;-66
2023/03/15 01:29:59;;;;;;;1.25;1.00;;;4.20;79.40;;;;;;5081748;28;20100;-65
2023/03/15 01:32:26;;;;;;;1.50;1.40;;;4.30;79.50;;;;;;5084461;28;20103;-66
2023/03/15 01:34:51;;;;;;;2.20;1.42;;;4.20;79.80;;;;;;5084239;28;20027;-65
2023/03/15 01:37:17;;;;;;;1.40;1.30;;;4.20;80.00;;;;;;5087336;28;20029;-66
2023/03/15 01:39:42;;;;;;;1.17;1.00;;;4.20;80.00;;;;;;5074647;28;20028;-67
2023/03/15 01:42:09;;;;;;;1.20;1.10;;;4.20;79.90;;;;;;5084125;28;20754;-66
2023/03/15 01:45:24;;;;;;;1.65;1.20;;;4.20;79.90;;;;;;5081231;28;20069;-66
2023/03/15 01:47:52;;;;;;;0.80;0.80;;;4.30;79.90;;;;;;5083893;28;20125;-66
2023/03/15 01:50:18;;;;;;;1.33;1.20;;;4.30;80.00;;;;;;5084435;28;20020;-67
2023/03/15 01:52:43;;;;;;;1.42;1.17;;;4.30;80.00;;;;;;5087015;28;20431;-66
2023/03/15 01:55:15;;;;;;;1.30;1.20;;;4.30;80.10;;;;;;5087104;28;20040;-68
2023/03/15 01:57:47;;;;;;;1.40;1.02;;;4.30;80.10;;;;;;5089085;28;20580;-67
2023/03/15 02:00:16;;;;;;;1.15;1.10;;;4.30;80.00;;;;;;5074335;28;20385;-66
2023/03/15 02:03:07;;;;;;;1.20;1.10;;;4.30;80.00;;;;;;5081265;28;20024;-67
2023/03/15 02:05:36;;;;;;;1.85;1.10;;;4.30;80.20;;;;;;5071978;28;20039;-67
2023/03/15 02:08:05;;;;;;;1.08;0.98;;;4.30;80.20;;;;;;5081354;28;20048;-66
2023/03/15 02:10:37;;;;;;;1.23;1.13;;;4.30;80.20;;;;;;5081731;28;20710;-67
2023/03/15 02:13:03;;;;;;;0.82;0.82;;;4.30;80.20;;;;;;5088061;28;20385;-67
2023/03/15 02:15:30;;;;;;;0.95;0.95;;;4.40;80.30;;;;;;5082128;28;20016;-67
2023/03/15 02:17:55;;;;;;;1.98;1.15;;;4.40;80.30;;;;;;5080056;28;20073;-67
2023/03/15 02:20:34;;;;;;;1.17;1.08;;;4.40;80.30;;;;;;5085312;28;20032;-67
2023/03/15 02:23:15;;;;;;;1.20;0.85;;;4.30;80.30;;;;;;5084936;28;20047;-66
2023/03/15 02:26:00;;;;;;;0.90;0.90;;;4.30;80.40;;;;;;5079361;28;20032;-66
2023/03/15 02:28:26;;;;;;;0.90;0.90;;;4.30;80.50;;;;;;5079430;28;20426;-67
2023/03/15 02:30:51;;;;;;;1.20;1.10;;;4.30;80.60;;;;;;5073126;28;20028;-67
2023/03/15 02:33:28;;;;;;;1.20;1.10;;;4.20;80.70;;;;;;5068622;28;20089;-66
2023/03/15 02:35:55;;;;;;;1.35;1.10;;;4.20;80.80;;;;;;5082982;28;20081;-66
2023/03/15 02:38:23;;;;;;;1.55;0.88;;;4.20;80.90;;;;;;5069272;28;20099;-66
2023/03/15 02:40:51;;;;;;;1.10;1.00;;;4.20;80.90;;;;;;5069671;28;20036;-66
2023/03/15 02:43:21;;;;;;;1.10;1.00;;;4.20;81.00;;;;;;5081812;28;20032;-67
2023/03/15 02:45:47;;;;;;;1.13;1.02;;;4.20;81.00;;;;;;5088891;28;20393;-66
2023/03/15 02:48:14;;;;;;;1.40;1.30;;;4.20;81.00;;;;;;5089410;28;20044;-66
2023/03/15 02:50:40;;;;;;;1.45;1.20;;;4.20;81.10;;;;;;5088250;28;20430;-67
2023/03/15 02:53:05;;;;;;;1.27;1.17;;;4.20;81.10;;;;;;5075689;28;20116;-66
2023/03/15 02:55:34;;;;;;;1.30;1.15;;;4.20;81.20;;;;;;5088680;28;20024;-66
2023/03/15 02:58:01;;;;;;;1.23;1.02;;;4.20;81.10;;;;;;5092339;28;20040;-67
2023/03/15 03:00:28;;;;;;;1.40;1.30;;;4.20;81.00;;;;;;5080568;28;20402;-66
2023/03/15 03:02:54;;;;;;;3.03;1.98;;;4.20;81.10;;;;;;5086914;28;20042;-66
2023/03/15 03:05:20;;;;;;;1.42;1.33;;;4.20;81.20;;;;;;5079800;28;20089;-65
2023/03/15 03:07:46;;;;;;;1.35;1.20;;;4.20;81.20;;;;;;5072901;28;20025;-67
2023/03/15 03:10:15;;;;;;;1.50;1.40;;;4.10;81.10;;;;;;5078844;28;20537;-67
2023/03/15 03:12:41;;;;;;;1.33;1.23;;;4.10;81.20;;;;;;5091198;28;20443;-67
2023/03/15 03:15:08;;;;;;;1.20;1.10;;;4.10;81.30;;;;;;5087231;28;20059;-67
2023/03/15 03:17:36;;;;;;;1.30;1.20;;;4.10;81.30;;;;;;5088315;28;20032;-67
2023/03/15 03:20:07;;;;;;;1.40;1.30;;;4.10;81.40;;;;;;5088558;28;20035;-67
2023/03/15 03:22:33;;;;;;;1.40;1.30;;;4.10;81.40;;;;;;5083019;28;20031;-67
2023/03/15 03:24:59;;;;;;;1.30;1.20;;;4.10;82.00;;;;;;5081993;28;20368;-67
2023/03/15 03:27:24;;;;;;;1.40;1.27;;;4.10;81.40;;;;;;5071478;28;20032;-66
2023/03/15 03:29:50;;;;;;;2.08;1.45;;;4.10;81.40;;;;;;5073353;28;20096;-66
2023/03/15 03:32:16;;;;;;;1.50;1.40;;;4.00;81.40;;;;;;5085290;28;20027;-68
2023/03/15 03:34:47;;;;;;;1.50;1.40;;;4.00;81.40;;;;;;5083015;28;20516;-66
2023/03/15 03:37:20;;;;;;;3.65;1.80;;;4.10;81.50;;;;;;5088398;28;20099;-66
2023/03/15 03:39:46;;;;;;;1.90;1.38;;;4.10;81.50;;;;;;5085351;28;20464;-67
2023/03/15 03:42:11;;;;;;;1.23;1.15;;;4.10;81.50;;;;;;5088009;28;20085;-66
2023/03/15 03:44:37;;;;;;;1.23;1.13;;;4.10;81.50;;;;;;5083858;28;20029;-66
2023/03/15 03:47:03;;;;;;;1.45;1.35;;;4.00;81.50;;;;;;5088586;28;20031;-67
2023/03/15 03:49:29;;;;;;;1.65;1.10;;;4.00;82.10;;;;;;5090699;28;20024;-67
2023/03/15 03:51:54;;;;;;;1.48;1.38;;;4.00;81.50;;;;;;5085839;28;20031;-67
2023/03/15 03:54:23;;;;;;;1.85;1.20;;;4.00;81.50;;;;;;5088919;28;20023;-66
2023/03/15 03:56:49;;;;;;;1.40;1.30;;;4.00;81.70;;;;;;5088692;28;20028;-67
2023/03/15 03:59:14;;;;;;;1.80;1.45;;;4.00;81.60;;;;;;5087893;28;20403;-66
2023/03/15 04:01:41;;;;;;;1.30;1.20;;;4.00;81.60;;;;;;5082048;28;20024;-66
2023/03/15 04:04:07;;;;;;;2.50;1.40;;;4.00;81.60;;;;;;5089880;28;20028;-67
2023/03/15 04:06:32;;;;;;;1.90;1.30;;;4.00;81.60;;;;;;5083937;28;20513;-67
2023/03/15 04:08:58;;;;;;;1.40;1.30;;;3.90;81.60;;;;;;5088021;28;20035;-67
2023/03/15 04:11:25;;;;;;;1.30;1.20;;;4.00;81.70;;;;;;5088648;28;20385;-67
2023/03/15 04:13:54;;;;;;;1.52;1.42;;;3.90;81.70;;;;;;5084809;28;20406;-67
2023/03/15 04:16:20;;;;;;;1.33;1.23;;;3.90;81.70;;;;;;5080598;28;20027;-66
2023/03/15 04:18:45;;;;;;;1.60;1.40;;;3.90;81.70;;;;;;5090361;28;20121;-67
2023/03/15 04:21:12;;;;;;;1.30;1.20;;;4.00;81.70;;;;;;5084973;28;20030;-67
2023/03/15 04:23:38;;;;;;;1.67;1.30;;;4.00;81.70;;;;;;5088182;28;20048;-67
2023/03/15 04:26:04;;;;;;;1.80;1.40;;;3.90;81.60;;;;;;5086720;28;20595;-68
2023/03/15 04:28:30;;;;;;;2.25;1.30;;;3.90;81.70;;;;;;5090279;28;20020;-67
2023/03/15 04:30:57;;;;;;;1.40;1.25;;;3.90;81.70;;;;;;5087338;28;20066;-66
2023/03/15 04:33:27;;;;;;;1.40;1.30;;;3.90;81.80;;;;;;5081441;28;20042;-68
2023/03/15 04:35:53;;;;;;;2.97;1.60;;;3.90;81.80;;;;;;5087190;28;20478;-66
2023/03/15 04:38:25;;;;;;;1.95;1.40;;;3.90;81.80;;;;;;5085785;28;20028;-67
2023/03/15 04:40:52;;;;;;;1.52;1.42;;;4.00;81.80;;;;;;5079656;28;20024;-67
2023/03/15 04:43:18;;;;;;;1.60;1.50;;;4.00;81.80;;;;;;5084263;28;20522;-67
2023/03/15 04:45:43;;;;;;;1.38;1.27;;;4.00;81.60;;;;;;5088189;28;20058;-67
2023/03/15 04:48:09;;;;;;;2.03;1.45;;;4.00;81.50;;;;;;5088782;28;20157;-66
2023/03/15 04:50:35;;;;;;;2.35;1.38;;;4.00;81.60;;;;;;5088299;28;20096;-67
2023/03/15 04:53:01;;;;;;;1.92;1.30;;;4.10;81.50;;;;;;5088966;28;20055;-67
2023/03/15 04:55:26;;;;;;;1.40;1.30;;;4.10;81.40;;;;;;5089365;28;20020;-67
2023/03/15 04:57:52;;;;;;;2.28;1.23;;;4.10;81.30;;;;;;5089003;28;20032;-67
2023/03/15 05:00:18;;;;;;;1.98;1.40;;;4.10;81.20;;;;;;5087989;28;20107;-67
2023/03/15 05:02:43;;;;;;;1.85;1.63;;;4.10;81.20;;;;;;5088323;28;20039;-67
2023/03/15 05:05:11;;;;;;;2.25;1.67;;;4.00;81.10;;;;;;5082858;28;20048;-67
2023/03/15 05:07:37;;;;;;;1.70;1.50;;;4.00;81.10;;;;;;5086965;28;20036;-67
2023/03/15 05:10:04;;;;;;;2.00;1.60;;;4.00;81.20;;;;;;5089153;28;20394;-67
2023/03/15 05:12:32;;;;;;;1.90;1.60;;;4.00;81.10;;;;;;5086591;28;20031;-66
2023/03/15 05:14:58;;;;;;;2.13;1.92;;;4.00;81.10;;;;;;5088289;28;20024;-66
2023/03/15 05:17:24;;;;;;;2.63;1.83;;;3.90;81.00;;;;;;5080193;28;20031;-67
2023/03/15 05:19:50;;;;;;;1.80;1.70;;;3.90;81.10;;;;;;5077652;28;20020;-66
2023/03/15 05:22:16;;;;;;;2.00;1.80;;;3.90;81.20;;;;;;5085297;28;20082;-66
2023/03/15 05:24:42;;;;;;;1.75;1.58;;;3.80;81.20;;;;;;5084721;28;20367;-67
2023/03/15 05:27:08;;;;;;;2.08;1.70;;;3.80;81.30;;;;;;5086882;28;20435;-66
2023/03/15 05:29:33;;;;;;;2.28;1.80;;;3.80;81.20;;;;;;5088842;28;20016;-67
2023/03/15 05:32:03;;;;;;;3.58;1.90;;;3.80;81.20;;;;;;5083632;28;20497;-66
2023/03/15 05:34:29;;;;;;;1.73;1.52;;;3.80;81.20;;;;;;5083109;28;20043;-67
2023/03/15 05:36:54;;;;;;;2.92;1.92;;;3.80;81.20;;;;;;5082660;28;20070;-67
2023/03/15 05:39:21;;;;;;;2.40;1.70;;;3.80;81.20;;;;;;5079388;28;20036;-67
2023/03/15 05:41:47;;;;;;;1.98;1.67;;;3.80;81.10;;;;;;5083824;28;20062;-66
2023/03/15 05:44:12;;;;;;;2.42;1.80;;;3.80;81.00;;;;;;5084909;28;20055;-66
2023/03/15 05:46:38;;;;;;;2.05;1.70;;;3.80;80.90;;;;;;5079638;28;20078;-67
2023/03/15 05:49:04;;;;;;;2.83;1.88;;;3.80;80.80;;;;;;5082941;28;20385;-67
2023/03/15 05:51:29;;;;;;;2.50;2.08;;;3.80;80.70;;;;;;5084282;28;20025;-66
2023/03/15 05:53:55;;;;;;;2.60;2.10;;;3.80;80.70;;;;;;5081642;28;20510;-67
2023/03/15 05:56:20;;;;;;;2.92;2.03;;;3.70;80.60;;;;;;5081061;28;20399;-68
2023/03/15 05:58:46;;;;;;;2.65;1.75;;;3.70;80.70;;;;;;5082286;28;20466;-68
2023/03/15 06:01:11;;;;;;;3.40;2.13;;;3.70;80.70;;;;;;5075760;28;20424;-67
2023/03/15 06:03:37;;;;;;;2.60;2.03;;;3.70;80.70;;;;;;5083527;28;20409;-68
2023/03/15 06:06:03;;;;;;;2.28;1.65;;;3.70;80.70;;;;;;5084711;28;20119;-67
2023/03/15 06:08:29;;;;;;;2.40;2.15;;;3.70;80.70;;;;;;5078331;28;20565;-67
2023/03/15 06:10:55;;;;;;;2.78;2.30;;;3.70;80.80;;;;;;5083884;28;20100;-67
2023/03/15 06:13:20;;;;;;;2.13;1.88;;;3.60;80.60;;;;;;5079005;28;20419;-66
2023/03/15 06:15:46;;;;;;;2.20;1.67;;;3.70;80.80;;;;;;5083596;28;20386;-66
2023/03/15 06:18:12;;;;;;;2.45;2.00;;;3.70;80.60;;;;;;5085167;28;20528;-67
2023/03/15 06:20:41;;;;;;;3.55;2.25;;;3.70;80.60;;;;;;5089880;28;20028;-67
2023/03/15 06:23:06;;;;;;;2.92;2.17;;;3.60;80.50;;;;;;5080062;28;20461;-66
2023/03/15 06:25:32;;;;;;;2.72;2.00;;;3.60;80.60;;;;;;5089502;28;20060;-66
2023/03/15 06:27:59;;;;;;;2.17;1.58;;;3.60;80.60;;;;;;5081426;28;20123;-67
2023/03/15 06:30:25;;;;;;;2.75;1.77;;;3.60;80.70;;;;;;5086052;28;20026;-66
2023/03/15 06:32:50;;;;;;;4.00;2.00;;;3.60;80.60;;;;;;5080518;28;20438;-67
2023/03/15 06:35:16;;;;;;;2.15;1.90;;;3.70;80.70;;;;;;5086900;28;20100;-68
2023/03/15 06:37:42;;;;;;;3.13;1.80;;;3.80;80.70;;;;;;5085818;28;20051;-67
2023/03/15 06:40:11;;;;;;;2.47;1.80;;;3.90;80.50;;;;;;5081157;28;20020;-67
2023/03/15 06:42:37;;;;;;;2.17;1.70;;;3.90;80.30;;;;;;5081006;28;20102;-66
2023/03/15 06:45:04;;;;;;;2.42;1.70;;;3.90;80.20;;;;;;5084496;28;20114;-68
2023/03/15 06:47:30;;;;;;;3.17;1.73;;;3.90;80.20;;;;;;5086262;28;20029;-67
2023/03/15 06:49:56;;;;;;;2.60;1.60;;;3.90;80.10;;;;;;5084578;28;20131;-66
2023/03/15 06:52:21;;;;;;;2.20;1.50;;;4.00;80.10;;;;;;5085046;28;20120;-67
2023/03/15 06:54:47;;;;;;;2.20;1.50;;;4.00;80.10;;;;;;5085925;28;20095;-67
2023/03/15 06:57:13;;;;;;;3.08;1.40;;;4.00;80.20;;;;;;5080795;28;20517;-66
2023/03/15 06:59:38;;;;;;;2.03;1.45;;;4.00;80.10;;;;;;5080038;28;20016;-66
2023/03/15 07:02:04;;;;;;;1.63;1.40;;;4.10;80.10;;;;;;5084473;28;20111;-67
2023/03/15 07:04:30;;;;;;;3.17;1.48;;;4.10;80.10;;;;;;5083336;28;20058;-66
2023/03/15 07:06:55;;;;;;;1.70;1.42;;;4.10;80.10;;;;;;5084641;28;20028;-67
2023/03/15 07:09:21;;;;;;;1.50;1.40;;;4.20;80.20;;;;;;5076569;28;20020;-66
2023/03/15 07:11:46;;;;;;;1.58;1.30;;;4.20;80.10;;;;;;5091605;28;20027;-66
2023/03/15 07:14:12;;;;;;;1.67;1.40;;;4.30;80.10;;;;;;5081551;28;20093;-67
2023/03/15 07:16:38;;;;;;;1.52;1.30;;;4.30;80.00;;;;;;5083470;28;20394;-67
2023/03/15 07:19:03;;;;;;;2.03;1.30;;;4.40;79.90;;;;;;5076230;28;20120;-67
2023/03/15 07:21:29;;;;;;;3.35;1.30;;;4.40;79.90;;;;;;5083374;28;20024;-67
2023/03/15 07:23:55;;;;;;;1.80;1.10;;;4.50;79.80;;;;;;5091009;28;20024;-67
2023/03/15 07:26:21;;;;;;;1.27;1.15;;;4.60;79.70;;;;;;5090637;28;20530;-67
2023/03/15 07:28:46;;;;;;;1.35;1.15;;;4.70;79.60;;;;;;5083047;28;20032;-67
2023/03/15 07:31:12;;;;;;;1.92;1.30;;;4.70;79.50;;;;;;5081485;28;20089;-65
2023/03/15 07:33:38;;;;;;;1.67;1.30;;;4.70;79.40;;;;;;5083940;28;20111;-66
2023/03/15 07:36:06;;;;;;;1.70;1.23;;;4.80;79.50;;;;;;5086350;28;20103;-66
2023/03/15 07:38:33;;;;;;;1.48;1.17;;;4.90;79.30;;;;;;5080142;28;20031;-65
2023/03/15 07:41:01;;;;;;;1.42;1.20;;;4.90;79.40;;;;;;5093322;28;20102;-67
2023/03/15 07:43:28;;;;;;;2.03;1.05;;;4.90;79.40;;;;;;5081173;28;20120;-66
2023/03/15 07:45:54;;;;;;;2.72;1.10;;;5.00;79.50;;;;;;5097763;28;20384;-67
2023/03/15 07:48:19;;;;;;;1.80;1.00;;;5.00;79.50;;;;;;5090696;28;20107;-66
2023/03/15 07:50:45;;;;;;;0.90;0.80;;;5.10;79.40;;;;;;5096483;28;20622;-66
2023/03/15 07:53:10;;;;;;;1.42;1.00;;;5.20;79.30;;;;;;5089553;28;20024;-66
2023/03/15 07:55:36;;;;;;;1.52;0.95;;;5.30;79.20;;;;;;5083435;28;20103;-66
2023/03/15 07:58:02;;;;;;;1.13;0.80;;;5.30;79.20;;;;;;5081777;28;20029;-67
2023/03/15 08:00:28;;;;;;;1.00;0.90;;;5.30;79.10;;;;;;5079503;28;20020;-67
2023/03/15 08:02:53;;;;;;;1.63;1.02;;;5.30;79.00;;;;;;5084899;28;20043;-66
2023/03/15 08:05:19;;;;;;;3.03;1.15;;;5.30;79.00;;;;;;5079698;28;20379;-66
2023/03/15 08:07:46;;;;;;;1.05;1.00;;;5.40;79.00;;;;;;5081501;28;20060;-66
2023/03/15 08:10:12;;;;;;;1.77;0.98;;;5.40;78.90;;;;;;5080929;28;20028;-67
2023/03/15 08:12:39;;;;;;;2.05;1.00;;;5.50;79.60;;;;;;5085391;28;20024;-67
2023/03/15 08:15:05;;;;;;;0.80;0.80;;;5.50;78.90;;;;;;5076210;28;20024;-67
2023/03/15 08:17:31;;;;;;;1.20;1.10;;;5.60;78.90;;;;;;5081328;28;20123;-67
2023/03/15 08:19:57;;;;;;;1.60;0.98;;;5.60;78.90;;;;;;5081434;28;20095;-67
2023/03/15 08:22:22;;;;;;;1.05;0.85;;;5.70;78.90;;;;;;5081022;28;20059;-67
2023/03/15 08:24:49;;;;;;;1.30;1.15;;;5.70;78.80;;;;;;5077637;28;20017;-67
2023/03/15 08:27:14;;;;;;;1.75;0.98;;;5.80;78.80;;;;;;5081037;28;20032;-67
2023/03/15 08:29:40;;;;;;;1.60;0.80;;;5.80;78.70;;;;;;5086111;28;20478;-67
2023/03/15 08:32:06;;;;;;;2.40;0.80;;;5.90;78.80;;;;;;5082669;28;20493;-67
2023/03/15 08:34:33;;;;;;;1.38;0.90;;;6.00;78.80;;;;;;5080198;28;20020;-67
2023/03/15 08:37:00;;;;;;;0.82;0.70;;;6.00;78.70;;;;;;5079849;28;20087;-67
2023/03/15 08:39:25;;;;;;;0.80;0.80;;;6.00;78.50;;;;;;5081258;28;20028;-67
2023/03/15 08:41:51;;;;;;;1.50;0.80;;;6.10;78.30;;;;;;5078751;28;20016;-68
2023/03/15 08:44:16;;;;;;;1.25;0.80;;;6.10;78.20;;;;;;5080767;28;20029;-69
2023/03/15 08:46:42;;;;;;;1.00;0.88;;;6.20;78.20;;;;;;5077556;28;20032;-68
2023/03/15 08:49:08;;;;;;;1.25;0.70;;;6.20;77.90;;;;;;5078955;28;20426;-68
2023/03/15 08:51:33;;;;;;;0.93;0.70;;;6.30;77.80;;;;;;5077314;28;20024;-68
2023/03/15 08:54:02;;;;;;;1.75;0.88;;;6.30;77.80;;;;;;5076518;28;20400;-68
2023/03/15 08:56:28;;;;;;;1.38;0.90;;;6.40;77.70;;;;;;5077528;28;20024;-68
2023/03/15 08:58:54;;;;;;;0.73;0.70;;;6.40;77.50;;;;;;5077775;28;20036;-68
2023/03/15 09:01:19;;;;;;;0.93;0.60;;;6.50;77.50;;;;;;5081412;28;20457;-68
2023/03/15 09:03:45;;;;;;;1.65;0.70;;;6.50;77.40;;;;;;5077351;28;20035;-68
2023/03/15 09:06:10;;;;;;;1.15;0.70;;;6.50;77.30;;;;;;5080504;28;20029;-68
2023/03/15 09:08:36;;;;;;;1.13;0.70;;;6.60;77.30;;;;;;5081791;28;20030;-69
2023/03/15 09:11:02;;;;;;;1.15;0.70;;;6.60;77.20;;;;;;5080576;28;20036;-68
2023/03/15 09:13:28;;;;;;;0.80;0.68;;;6.70;77.10;;;;;;5078940;28;20497;-68
2023/03/15 09:15:55;;;;;;;0.60;0.60;;;6.70;77.00;;;;;;5082036;28;20025;-68
2023/03/15 09:18:22;;;;;;;1.52;0.73;;;6.70;76.80;;;;;;5088374;28;20032;-68
2023/03/15 09:20:48;;;;;;;2.13;0.77;;;6.70;76.60;;;;;;5079038;28;20044;-68
2023/03/15 09:23:14;;;;;;;1.35;0.70;;;6.80;76.60;;;;;;5082986;28;20622;-68
2023/03/15 09:25:40;;;;;;;1.40;0.70;;;6.80;76.40;;;;;;5081191;28;20052;-68
2023/03/15 09:28:08;;;;;;;0.85;0.70;;;6.80;76.40;;;;;;5088439;28;20055;-68
2023/03/15 09:30:35;;;;;;;2.05;0.70;;;6.90;76.40;;;;;;5083691;28;20065;-68
2023/03/15 09:33:01;;;;;;;0.82;0.77;;;6.90;76.30;;;;;;5084686;28;21006;-68
2023/03/15 09:35:27;;;;;;;0.65;0.65;;;7.00;76.30;;;;;;5083130;28;20107;-68
2023/03/15 09:37:53;;;;;;;1.05;0.70;;;7.00;76.10;;;;;;5078863;28;20033;-68
2023/03/15 09:40:21;;;;;;;2.47;0.88;;;7.00;76.60;;;;;;5081691;28;20036;-68
2023/03/15 09:42:50;;;;;;;1.25;0.80;;;7.10;75.80;;;;;;5086280;28;20032;-68
2023/03/15 09:45:38;;;;;;;0.60;0.60;;;7.10;75.60;;;;;;5080109;28;20032;-68
2023/03/15 09:48:16;;;;;;;0.98;0.70;;;7.10;75.60;;;;;;5082264;28;20362;-68
2023/03/15 09:50:42;;;;;;;1.98;0.80;;;7.10;75.30;;;;;;5079440;28;20038;-68
2023/03/15 09:53:25;;;;;;;2.90;0.70;;;7.20;75.50;;;;;;5088792;28;20028;-68
2023/03/15 09:55:51;;;;;;;1.35;0.80;;;7.20;75.40;;;;;;5080099;28;20016;-69
2023/03/15 09:58:22;;;;;;;1.25;0.77;;;7.30;75.20;;;;;;5089963;28;20038;-68
2023/03/15 10:00:51;;;;;;;1.63;0.80;;;7.30;75.10;;;;;;5077844;28;20035;-69
2023/03/15 10:03:35;;;;;;;1.08;0.90;;;7.30;74.50;;;;;;5085629;28;20520;-68
2023/03/15 10:06:34;;;;;;;0.77;0.77;;;7.30;74.60;;;;;;5074175;28;20028;-68
2023/03/15 10:09:03;;;;;;;1.10;0.80;;;7.30;74.20;;;;;;5088000;28;20016;-68
2023/03/15 10:11:44;;;;;;;2.25;0.80;;;7.40;74.00;;;;;;5085024;28;20025;-68
2023/03/15 10:14:38;;;;;;;1.10;0.60;;;7.50;73.80;;;;;;5084015;28;20036;-68
2023/03/15 10:17:11;;;;;;;0.73;0.60;;;7.40;73.60;;;;;;5085757;28;20027;-68
2023/03/15 10:19:50;;;;;;;1.27;0.60;;;7.50;73.50;;;;;;5081466;28;20039;-66
2023/03/15 10:22:28;;;;;;;0.70;0.70;;;7.50;73.40;;;;;;5084130;28;20493;-68
2023/03/15 10:25:01;;;;;;;1.38;0.60;;;7.50;73.50;;;;;;5091182;28;20028;-68
2023/03/15 10:27:29;;;;;;;;;;;7.60;73.50;;;;;;5080244;28;20147;-70
2023/03/15 10:29:57;;;;;;;1.95;0.80;;;7.70;73.90;;;;;;5083141;28;19919;-68
2023/03/15 10:32:39;;;;;;;1.92;0.63;;;7.70;73.10;;;;;;5081308;28;20517;-68
2023/03/15 10:35:14;;;;;;;1.88;0.63;;;7.70;73.70;;;;;;5084881;28;20024;-68
2023/03/15 10:37:41;;;;;;;1.45;0.70;;;7.80;72.90;;;;;;5080383;28;20327;-68
2023/03/15 10:40:15;;;;;;;1.42;0.60;;;7.90;72.50;;;;;;5086179;28;20120;-68
2023/03/15 10:42:45;;;;;;;1.98;0.80;;;8.00;72.40;;;;;;5083527;28;20432;-68
2023/03/15 10:45:24;;;;;;;0.80;0.60;;;8.00;72.20;;;;;;5081781;28;20095;-68
2023/03/15 10:47:50;;;;;;;0.70;0.70;;;8.10;72.10;;;;;;5073357;28;20276;-68
2023/03/15 10:50:28;;;;;;;0.77;0.63;;;8.10;71.90;;;;;;5085030;28;20024;-68
2023/03/15 10:52:56;;;;;;;0.82;0.73;;;8.10;71.90;;;;;;5088632;28;20073;-68
2023/03/15 10:55:35;;;;;;;1.92;0.80;;;8.20;71.80;;;;;;5083009;28;20020;-68
2023/03/15 10:58:37;;;;;;;1.75;0.70;;;8.30;71.70;;;;;;5082574;28;20032;-68
2023/03/15 11:01:06;;;;;;;1.90;0.80;;;8.50;71.50;;;;;;5084844;28;20050;-68
2023/03/15 11:03:33;;;;;;;3.63;1.17;;;8.50;69.30;;;;;;5082443;28;20048;-69
2023/03/15 11:05:59;;;;;;;3.25;1.20;;;8.60;69.30;;;;;;5085629;28;20374;-66
2023/03/15 11:08:37;;;;;;;1.85;0.80;;;8.70;69.10;;;;;;5089425;28;20510;-68
2023/03/15 11:11:04;;;;;;;3.03;1.00;;;8.80;69.40;;;;;;5089229;28;20114;-69
2023/03/15 11:13:32;;;;;;;2.53;1.13;;;8.90;68.60;;;;;;5083992;28;20020;-68
2023/03/15 11:15:57;;;;;;;2.08;1.20;;;8.90;68.20;;;;;;5084588;28;20025;-66
2023/03/15 11:18:43;;;;;;;2.22;1.10;;;9.00;67.70;;;;;;5082779;28;20028;-66
2023/03/15 11:21:15;;;;;;;2.50;1.05;;;9.00;67.10;;;;;;5085749;28;20774;-66
2023/03/15 11:23:45;;;;;;;3.50;1.55;;;9.00;66.40;;;;;;5078351;28;20028;-66
2023/03/15 11:26:20;;;;;;;2.60;1.35;;;9.00;66.00;;;;;;5079843;28;20503;-69
2023/03/15 11:28:53;;;;;;;1.05;0.90;;;9.10;66.40;;;;;;5093522;28;20437;-66
2023/03/15 11:31:22;;;;;;;1.48;1.08;;;9.20;66.60;;;;;;5087359;28;20078;-70
2023/03/15 11:34:01;;;;;;;0.85;0.80;;;9.30;66.70;;;;;;5073554;28;20021;-67
2023/03/15 11:36:31;;;;;;;2.30;1.00;;;9.40;66.60;;;;;;5073311;28;20066;-66
2023/03/15 11:39:00;;;;;;;1.77;0.90;;;9.40;66.30;;;;;;5072780;28;20025;-66
2023/03/15 11:41:37;;;;;;;2.50;1.10;;;9.50;66.50;;;;;;5073328;28;20024;-68
2023/03/15 11:44:21;;;;;;;2.25;1.00;;;9.50;64.70;;;;;;5072211;28;20055;-67
2023/03/15 11:46:51;;;;;;;1.88;1.10;;;9.40;64.20;;;;;;5089174;28;20074;-68
2023/03/15 11:49:28;;;;;;;3.88;1.20;;;9.40;64.00;;;;;;5084188;28;20065;-67
2023/03/15 11:51:55;;;;;;;2.00;1.00;;;9.50;62.60;;;;;;5082453;28;20087;-67
2023/03/15 11:54:23;;;;;;;1.98;0.85;;;9.50;63.40;;;;;;5090349;28;20381;-68
2023/03/15 11:56:55;;;;;;;1.77;0.80;;;9.60;63.50;;;;;;5080934;28;20070;-67
2023/03/15 11:59:31;;;;;;;3.60;1.30;;;9.70;63.80;;;;;;5089081;28;20111;-67
2023/03/15 12:01:57;;;;;;;3.33;0.90;;;9.70;60.50;;;;;;5078169;28;20031;-67
2023/03/15 12:04:31;;;;;;;3.33;1.50;;;9.50;58.80;;;;;;5075742;28;20024;-68
2023/03/15 12:07:02;;;;;;;3.00;1.05;;;9.50;60.50;;;;;;5078608;28;20431;-67
2023/03/15 12:09:36;;;;;;;2.25;0.93;;;9.70;61.40;;;;;;5074237;28;20106;-67
2023/03/15 12:12:22;;;;;;;2.28;1.17;;;10.00;62.20;;;;;;5075847;28;20430;-68
2023/03/15 12:15:05;;;;;;;6.35;1.35;;;10.00;60.10;;;;;;5079990;28;20037;-68
2023/03/15 12:17:41;;;;;;;1.48;0.80;;;10.00;59.70;;;;;;5085330;28;20027;-67
2023/03/15 12:20:10;;;;;;;1.27;1.05;;;10.10;60.60;;;;;;5080811;28;20029;-68
2023/03/15 12:22:40;;;;;;;2.80;1.00;;;10.10;60.00;;;;;;5084661;28;20028;-67
2023/03/15 12:25:34;;;;;;;2.15;0.80;;;10.20;60.30;;;;;;5083400;28;20032;-67
2023/03/15 12:28:07;;;;;;;1.02;0.90;;;10.40;61.00;;;;;;5083687;28;20037;-68
2023/03/15 12:30:40;;;;;;;1.10;0.80;;;10.50;60.30;;;;;;5082760;28;20039;-68
2023/03/15 12:33:15;;;;;;;2.05;0.90;;;10.50;60.00;;;;;;5088233;28;20140;-68
2023/03/15 12:35:41;;;;;;;2.90;1.20;;;10.50;59.00;;;;;;5090884;28;20039;-68
2023/03/15 12:38:16;;;;;;;2.28;1.13;;;10.40;56.60;;;;;;5079940;28;20478;-68
2023/03/15 12:40:52;;;;;;;2.08;0.95;;;10.40;56.60;;;;;;5083537;28;20502;-68
2023/03/15 12:43:38;;;;;;;1.27;0.90;;;10.40;57.20;;;;;;5083414;28;20027;-68
2023/03/15 12:46:05;;;;;;;3.08;0.90;;;10.60;58.00;;;;;;5080857;28;20372;-67
2023/03/15 12:48:33;;;;;;;4.35;1.00;;;10.60;57.40;;;;;;5076097;28;20024;-67
2023/03/15 12:51:04;;;;;;;3.20;0.93;;;10.70;57.30;;;;;;5083785;28;20102;-66
2023/03/15 12:53:38;;;;;;;2.88;0.80;;;10.80;58.00;;;;;;5082247;28;20016;-66
2023/03/15 12:56:22;;;;;;;1.95;1.25;;;10.90;58.30;;;;;;5089247;28;20040;-69
2023/03/15 12:59:00;;;;;;;3.13;0.80;;;10.90;57.30;;;;;;5086052;28;20060;-67
2023/03/15 13:01:26;;;;;;;2.65;1.10;;;11.00;57.80;;;;;;5077338;28;20195;-67
2023/03/15 13:03:57;;;;;;;1.58;0.70;;;11.10;57.70;;;;;;5089924;28;20103;-67
2023/03/15 13:06:49;;;;;;;1.55;0.80;;;11.10;58.10;;;;;;5085649;28;20029;-69